Time;durP1;ratioP1;P1;durP2;ratioP2;P2;SDS_P1;SDS_P2;PMS_P1;PMS_P2;Temp;Humidity;BMP_temperature;BMP_pressure;BME280_temperature;BME280_humidity;BME280_pressure;Samples;Min_cycle;Max_cycle;Signal;HPM_P1;HPM_P2
2021/11/11 00:00:53;;;;;;;19.32;7.67;;;;;;;-0.78;63.26;101063.87;1720695;83;20892;-71
2021/11/11 00:03:20;;;;;;;16.70;7.42;;;;;;;-0.81;63.33;101059.72;1721850;83;20943;-72
2021/11/11 00:05:47;;;;;;;17.98;6.90;;;;;;;-0.82;63.40;101059.41;1721762;83;20908;-73
2021/11/11 00:08:14;;;;;;;15.50;6.75;;;;;;;-0.82;63.53;101067.49;1719583;83;21237;-71
2021/11/11 00:10:41;;;;;;;17.77;8.15;;;;;;;-0.83;63.61;101067.70;1721747;83;20852;-71
2021/11/11 00:13:07;;;;;;;18.67;7.15;;;;;;;-0.85;63.63;101063.02;1720194;83;21003;-72
2021/11/11 00:15:34;;;;;;;18.52;7.50;;;;;;;-0.87;63.75;101055.14;1720139;83;20896;-72
2021/11/11 00:18:00;;;;;;;13.58;6.67;;;;;;;-0.89;63.83;101055.03;1721760;83;20899;-71
2021/11/11 00:20:28;;;;;;;17.50;7.28;;;;;;;-0.91;63.97;101054.41;1720897;82;21128;-72
2021/11/11 00:22:54;;;;;;;14.87;7.03;;;;;;;-0.92;64.00;101047.34;1720684;83;20939;-72
2021/11/11 00:25:22;;;;;;;15.25;5.92;;;;;;;-0.93;64.19;101053.26;1720682;83;21545;-73
2021/11/11 00:27:49;;;;;;;14.75;6.65;;;;;;;-0.95;64.20;101054.50;1719177;83;20903;-74
2021/11/11 00:30:18;;;;;;;17.95;8.33;;;;;;;-1.00;64.33;101041.11;1717516;83;20928;-74
2021/11/11 00:32:45;;;;;;;19.32;7.58;;;;;;;-1.01;64.48;101037.27;1720293;83;21202;-74
2021/11/11 00:35:18;;;;;;;20.82;8.30;;;;;;;-1.03;64.64;101036.64;1720963;83;21574;-74
2021/11/11 00:37:46;;;;;;;21.05;8.60;;;;;;;-1.05;65.00;101032.80;1721080;83;20900;-74
2021/11/11 00:40:12;;;;;;;14.07;6.62;;;;;;;-1.08;65.12;101042.64;1718837;83;20971;-74
2021/11/11 00:42:39;;;;;;;17.35;7.47;;;;;;;-1.10;65.28;101042.02;1719916;83;20900;-73
2021/11/11 00:45:06;;;;;;;15.85;7.33;;;;;;;-1.11;65.31;101036.83;1718160;83;21699;-74
2021/11/11 00:47:33;;;;;;;11.80;5.80;;;;;;;-1.13;65.62;101030.80;1717374;83;20900;-74
2021/11/11 00:49:59;;;;;;;16.57;7.60;;;;;;;-1.15;65.81;101032.88;1718177;83;20899;-74
2021/11/11 00:52:26;;;;;;;17.95;7.08;;;;;;;-1.19;65.87;101031.13;1718094;83;20869;-74
2021/11/11 00:54:52;;;;;;;18.07;6.58;;;;;;;-1.21;66.02;101027.81;1719636;83;20995;-74
2021/11/11 00:57:32;;;;;;;14.75;6.30;;;;;;;-1.22;66.07;101023.97;1721230;83;21247;-74
2021/11/11 00:59:59;;;;;;;19.80;8.23;;;;;;;-1.25;66.37;101021.16;1706559;83;20865;-74
2021/11/11 01:02:26;;;;;;;15.03;7.17;;;;;;;-1.28;66.47;101016.70;1718253;83;20959;-74
2021/11/11 01:04:53;;;;;;;15.23;7.62;;;;;;;-1.31;66.59;101019.80;1717815;83;20924;-75
2021/11/11 01:07:19;;;;;;;15.70;7.08;;;;;;;-1.34;66.79;101018.33;1720711;83;20939;-75
2021/11/11 01:09:45;;;;;;;17.45;6.55;;;;;;;-1.37;66.96;101021.43;1721923;83;21167;-75
2021/11/11 01:12:12;;;;;;;13.25;6.40;;;;;;;-1.40;67.24;101010.54;1717696;83;21013;-75
2021/11/11 01:14:38;;;;;;;14.83;6.55;;;;;;;-1.41;67.24;101010.23;1718180;83;20896;-75
2021/11/11 01:17:05;;;;;;;12.80;6.22;;;;;;;-1.42;67.44;101007.22;1720887;83;20895;-75
2021/11/11 01:19:32;;;;;;;15.98;7.08;;;;;;;-1.46;67.66;101007.31;1721957;83;21470;-73
2021/11/11 01:21:58;;;;;;;15.70;6.67;;;;;;;-1.48;67.84;101003.98;1720190;82;21470;-74
2021/11/11 01:24:25;;;;;;;13.93;6.58;;;;;;;-1.50;68.17;101007.39;1721713;83;21665;-73
2021/11/11 01:26:51;;;;;;;13.48;7.25;;;;;;;-1.51;68.20;101001.69;1721874;83;21426;-73
2021/11/11 01:29:19;;;;;;;20.02;7.40;;;;;;;-1.52;68.37;101000.03;1719197;83;20927;-73
2021/11/11 01:31:46;;;;;;;16.52;7.30;;;;;;;-1.54;68.46;101004.78;1720430;83;20955;-73
2021/11/11 01:34:13;;;;;;;20.80;6.97;;;;;;;-1.56;68.67;100998.77;1725458;83;21151;-73
2021/11/11 01:36:39;;;;;;;16.20;7.95;;;;;;;-1.57;68.76;100997.62;1718715;83;20896;-74
2021/11/11 01:39:08;;;;;;;20.72;7.22;;;;;;;-1.57;68.88;100998.97;1718302;83;20903;-74
2021/11/11 01:41:48;;;;;;;15.13;6.67;;;;;;;-1.59;69.11;100988.40;1718130;83;20896;-73
2021/11/11 01:44:17;;;;;;;18.80;7.55;;;;;;;-1.60;69.17;100988.09;1718618;83;20991;-73
2021/11/11 01:46:43;;;;;;;15.80;6.90;;;;;;;-1.61;69.34;100982.38;1713027;82;21754;-73
2021/11/11 01:49:13;;;;;;;15.30;7.20;;;;;;;-1.62;69.44;100975.85;1690897;84;20933;-74
2021/11/11 01:51:41;;;;;;;19.23;6.35;;;;;;;-1.64;69.60;100969.32;1693207;84;20942;-74
2021/11/11 01:54:09;;;;;;;17.60;7.47;;;;;;;-1.64;69.56;100969.32;1689694;85;20965;-75
2021/11/11 01:56:36;;;;;;;15.68;6.40;;;;;;;-1.64;69.74;100973.36;1689918;85;21467;-75
2021/11/11 01:59:05;;;;;;;21.57;7.85;;;;;;;-1.65;69.90;100969.01;1688088;84;21243;-76
2021/11/11 02:01:32;;;;;;;14.87;7.58;;;;;;;-1.64;69.98;100960.41;1692362;84;20901;-75
2021/11/11 02:03:59;;;;;;;18.10;8.38;;;;;;;-1.66;70.01;100960.61;1691069;84;21005;-73
2021/11/11 02:06:27;;;;;;;14.23;6.80;;;;;;;-1.67;70.14;100954.40;1696172;84;20948;-73
2021/11/11 02:09:00;;;;;;;13.65;6.70;;;;;;;-1.68;70.20;100949.21;1691279;84;21009;-73
2021/11/11 02:11:29;;;;;;;13.90;6.35;;;;;;;-1.71;70.40;100946.92;1682451;84;21503;-72
2021/11/11 02:13:56;;;;;;;13.35;7.17;;;;;;;-1.73;70.49;100935.01;1689501;84;21457;-73
2021/11/11 02:16:22;;;;;;;11.40;6.12;;;;;;;-1.74;70.67;100939.28;1718546;83;20900;-74
2021/11/11 02:18:49;;;;;;;13.32;7.15;;;;;;;-1.76;70.63;100929.23;1721262;83;20971;-72
2021/11/11 02:21:16;;;;;;;13.58;6.87;;;;;;;-1.78;70.93;100934.81;1725168;81;20939;-72
2021/11/11 02:23:57;;;;;;;16.65;6.35;;;;;;;-1.79;70.93;100930.46;1722173;83;21090;-73
2021/11/11 02:26:25;;;;;;;19.67;6.75;;;;;;;-1.79;71.36;100926.42;1700934;83;20976;-71
2021/11/11 02:28:58;;;;;;;13.00;6.00;;;;;;;-1.78;71.27;100923.22;1717204;83;20891;-71
2021/11/11 02:31:25;;;;;;;13.70;5.60;;;;;;;-1.79;71.20;100917.00;1721039;83;20903;-73
2021/11/11 02:33:55;;;;;;;14.50;6.60;;;;;;;-1.79;71.35;100912.13;1719348;83;20872;-72
2021/11/11 02:36:24;;;;;;;18.77;7.78;;;;;;;-1.82;71.48;100909.33;1719323;83;21189;-72
2021/11/11 02:38:52;;;;;;;15.13;6.97;;;;;;;-1.83;71.50;100908.18;1702952;83;21468;-72
2021/11/11 02:41:20;;;;;;;16.05;6.85;;;;;;;-1.85;71.44;100911.08;1689652;84;21432;-72
2021/11/11 02:43:47;;;;;;;12.13;5.92;;;;;;;-1.86;71.71;100909.93;1691180;84;20949;-71
2021/11/11 02:46:17;;;;;;;13.50;6.12;;;;;;;-1.89;71.83;100905.78;1695958;84;20941;-72
2021/11/11 02:48:44;;;;;;;9.85;4.75;;;;;;;-1.91;71.96;100909.19;1694074;84;21778;-72
2021/11/11 02:51:10;;;;;;;14.38;5.87;;;;;;;-1.91;72.07;100898.94;1689794;84;20937;-72
2021/11/11 02:53:41;;;;;;;13.15;5.78;;;;;;;-1.93;72.05;100901.00;1721241;83;20900;-72
2021/11/11 02:56:08;;;;;;;13.18;6.15;;;;;;;-1.93;72.23;100899.14;1721794;83;20903;-72
2021/11/11 02:58:35;;;;;;;14.78;6.75;;;;;;;-1.92;72.19;100891.89;1722077;83;20947;-71
2021/11/11 03:01:04;;;;;;;17.07;7.10;;;;;;;-1.94;72.28;100884.02;1721736;83;21157;-73
2021/11/11 03:03:32;;;;;;;14.07;5.97;;;;;;;-1.95;72.17;100877.49;1720646;83;20888;-69
2021/11/11 03:05:59;;;;;;;16.73;7.58;;;;;;;-1.95;72.41;100873.45;1718989;83;20943;-70
2021/11/11 03:08:27;;;;;;;13.78;6.58;;;;;;;-1.96;72.51;100875.83;1720580;83;21450;-69
2021/11/11 03:10:56;;;;;;;15.50;7.10;;;;;;;-1.97;72.51;100866.09;1719343;83;20939;-69
2021/11/11 03:13:24;;;;;;;13.32;6.05;;;;;;;-2.00;72.56;100856.05;1722032;83;21783;-71
2021/11/11 03:15:55;;;;;;;17.50;7.53;;;;;;;-2.00;72.72;100856.56;1711460;83;20931;-70
2021/11/11 03:18:22;;;;;;;17.48;7.10;;;;;;;-2.01;72.82;100852.22;1717269;83;21034;-71
2021/11/11 03:20:49;;;;;;;17.42;7.70;;;;;;;-2.02;72.74;100856.77;1718083;82;20939;-71
2021/11/11 03:23:16;;;;;;;14.75;6.15;;;;;;;-2.01;72.82;100845.48;1718167;83;20907;-72
2021/11/11 03:25:44;;;;;;;13.62;6.15;;;;;;;-2.03;73.16;100847.03;1719666;83;20936;-74
2021/11/11 03:28:11;;;;;;;12.18;5.85;;;;;;;-2.02;73.16;100839.80;1722553;81;20932;-72
2021/11/11 03:30:38;;;;;;;16.35;7.33;;;;;;;-2.02;73.21;100839.80;1695746;83;20923;-73
2021/11/11 03:33:06;;;;;;;14.10;7.28;;;;;;;-2.03;73.20;100836.27;1697433;84;20859;-71
2021/11/11 03:35:35;;;;;;;12.50;6.37;;;;;;;-2.02;73.21;100833.89;1699301;84;20947;-72
2021/11/11 03:38:04;;;;;;;15.80;6.95;;;;;;;-2.02;73.25;100832.55;1699376;84;21115;-73
2021/11/11 03:40:35;;;;;;;14.60;5.85;;;;;;;-2.03;73.18;100830.06;1699230;84;20911;-74
2021/11/11 03:43:03;;;;;;;14.20;6.45;;;;;;;-2.05;73.35;100823.53;1699540;84;20911;-72
2021/11/11 03:45:31;;;;;;;18.62;6.65;;;;;;;-2.08;73.50;100816.38;1697270;84;20940;-72
2021/11/11 03:47:58;;;;;;;14.20;7.03;;;;;;;-2.10;73.56;100816.58;1694935;84;21482;-71
2021/11/11 03:50:25;;;;;;;13.10;5.75;;;;;;;-2.12;73.74;100811.92;1698168;84;21505;-71
2021/11/11 03:52:54;;;;;;;19.85;7.30;;;;;;;-2.11;73.75;100808.71;1699330;84;20851;-72
2021/11/11 03:55:23;;;;;;;30.70;10.53;;;;;;;-2.11;73.83;100805.50;1696665;84;20993;-71
2021/11/11 03:57:51;;;;;;;22.07;8.83;;;;;;;-2.11;73.95;100798.78;1723331;82;20931;-72
2021/11/11 04:00:19;;;;;;;15.10;6.97;;;;;;;-2.12;73.89;100799.81;1693780;83;20921;-72
2021/11/11 04:02:47;;;;;;;13.43;6.30;;;;;;;-2.12;74.16;100798.98;1694687;84;21110;-72
2021/11/11 04:05:14;;;;;;;17.45;7.20;;;;;;;-2.15;74.19;100788.63;1698283;83;21430;-73
2021/11/11 04:07:43;;;;;;;14.13;6.72;;;;;;;-2.14;74.35;100784.90;1699006;84;20887;-72
2021/11/11 04:10:12;;;;;;;13.03;5.58;;;;;;;-2.12;74.39;100786.36;1699548;84;20943;-72
2021/11/11 04:12:39;;;;;;;12.43;6.62;;;;;;;-2.12;74.41;100789.05;1701076;82;20930;-72
2021/11/11 04:15:07;;;;;;;14.30;6.42;;;;;;;-2.13;74.40;100791.42;1735317;81;21107;-71
2021/11/11 04:17:35;;;;;;;16.75;6.17;;;;;;;-2.14;74.45;100792.45;1685748;83;20868;-72
2021/11/11 04:20:02;;;;;;;13.90;6.78;;;;;;;-2.14;74.42;100784.39;1692321;84;20899;-73
2021/11/11 04:22:28;;;;;;;14.23;7.30;;;;;;;-2.15;74.48;100789.97;1703602;81;20912;-71
2021/11/11 04:24:57;;;;;;;10.90;5.67;;;;;;;-2.16;74.67;100790.48;1715648;81;20879;-71
2021/11/11 04:27:32;;;;;;;15.25;7.58;;;;;;;-2.17;74.83;100787.48;1719270;81;21453;-73
2021/11/11 04:30:08;;;;;;;;;;;;;;;-2.17;74.82;100776.72;1698364;83;20931;-71
2021/11/11 04:32:24;;;;;;;15.78;6.78;;;;;;;-2.18;74.90;100771.54;1659026;84;20455;-72
2021/11/11 04:34:56;;;;;;;14.65;7.42;;;;;;;-2.20;75.04;100760.98;1725826;82;21505;-73
2021/11/11 04:37:30;;;;;;;15.50;6.25;;;;;;;-2.21;75.16;100756.63;1724747;81;20938;-72
2021/11/11 04:40:28;;;;;;;12.55;6.67;;;;;;;-2.22;75.29;100755.48;1715577;81;21463;-73
2021/11/11 04:43:04;;;;;;;14.40;6.22;;;;;;;-2.22;75.27;100763.05;1700000;82;20902;-72
2021/11/11 04:59:28;;;;;;;15.58;7.05;;;;;;;-2.25;75.49;100757.23;1724578;82;21144;-69
2021/11/11 05:01:24;;;;;;;15.18;6.90;;;;;;;-2.27;75.77;100763.34;1728591;81;21505;-71
2021/11/11 05:03:48;;;;;;;12.25;6.80;;;;;;;-2.27;75.70;100766.03;1720080;82;20908;-72
2021/11/11 05:06:16;;;;;;;17.90;6.83;;;;;;;-2.29;75.84;100762.20;1716514;81;21891;-72
2021/11/11 05:08:44;;;;;;;15.53;7.15;;;;;;;-2.31;75.87;100760.22;1713569;82;20966;-71
2021/11/11 05:11:11;;;;;;;14.40;7.55;;;;;;;-2.30;75.98;100755.16;1699494;82;21489;-72
2021/11/11 05:13:38;;;;;;;16.62;7.22;;;;;;;-2.29;76.01;100749.27;1693416;84;21434;-71
2021/11/11 05:16:06;;;;;;;15.08;7.22;;;;;;;-2.28;76.00;100746.38;1717251;83;20903;-73
2021/11/11 05:18:33;;;;;;;18.27;7.75;;;;;;;-2.27;76.11;100745.86;1730503;82;21115;-71
2021/11/11 05:20:59;;;;;;;16.82;7.90;;;;;;;-2.27;76.03;100745.86;1727477;81;20983;-72
2021/11/11 05:23:26;;;;;;;18.15;7.45;;;;;;;-2.27;76.06;100749.37;1702603;83;20963;-73
2021/11/11 05:25:55;;;;;;;16.50;7.83;;;;;;;-2.27;76.10;100751.23;1688850;84;20962;-74
2021/11/11 05:28:22;;;;;;;20.32;6.90;;;;;;;-2.24;76.14;100739.55;1696573;84;21055;-73
2021/11/11 05:30:49;;;;;;;17.12;6.97;;;;;;;-2.22;76.00;100744.73;1728674;82;21103;-78
2021/11/11 05:33:15;;;;;;;13.95;6.83;;;;;;;-2.20;75.95;100738.63;1722434;83;20927;-72
2021/11/11 05:35:42;;;;;;;14.75;6.85;;;;;;;-2.17;75.90;100734.19;1731488;82;20860;-72
2021/11/11 05:38:09;;;;;;;15.72;6.35;;;;;;;-2.13;75.81;100731.41;1731162;83;20963;-75
2021/11/11 05:40:36;;;;;;;16.67;6.10;;;;;;;-2.10;75.78;100737.73;1724748;82;21039;-78
2021/11/11 05:43:03;;;;;;;15.32;6.87;;;;;;;-2.07;75.72;100740.01;1724880;82;21450;-72
2021/11/11 05:45:30;;;;;;;13.18;6.35;;;;;;;-2.04;75.64;100733.70;1692796;84;21461;-72
2021/11/11 05:47:58;;;;;;;14.98;7.28;;;;;;;-1.98;75.57;100727.19;1699181;84;21073;-72
2021/11/11 05:50:25;;;;;;;18.40;7.78;;;;;;;-1.94;75.46;100710.43;1715229;81;20875;-74
2021/11/11 05:52:52;;;;;;;15.53;7.25;;;;;;;-1.89;75.35;100714.68;1702575;83;20950;-73
2021/11/11 05:55:20;;;;;;;17.67;7.47;;;;;;;-1.83;75.26;100722.45;1694963;83;21084;-73
2021/11/11 05:57:46;;;;;;;14.35;7.47;;;;;;;-1.79;75.15;100721.00;1720247;82;21434;-78
2021/11/11 06:00:16;;;;;;;11.28;6.50;;;;;;;-1.73;75.02;100720.97;1699137;84;20915;-68
2021/11/11 06:02:46;;;;;;;18.67;6.55;;;;;;;-1.66;74.86;100723.67;1693861;84;21014;-76
2021/11/11 06:05:15;;;;;;;18.55;6.90;;;;;;;-1.59;74.56;100719.11;1691089;84;20912;-77
2021/11/11 06:07:42;;;;;;;12.93;6.62;;;;;;;-1.49;74.90;100728.13;1693393;83;21134;-76
2021/11/11 06:10:09;;;;;;;19.32;7.08;;;;;;;-1.40;73.98;100718.27;1696283;84;20963;-76
2021/11/11 06:12:36;;;;;;;17.98;7.30;;;;;;;-1.31;73.87;100718.06;1697833;84;20999;-69
2021/11/11 06:15:06;;;;;;;18.57;6.75;;;;;;;-1.24;73.64;100711.63;1694002;82;21019;-77
2021/11/11 06:17:35;;;;;;;12.45;5.92;;;;;;;-1.15;73.20;100716.23;1717392;83;20892;-73
2021/11/11 06:20:14;;;;;;;15.68;6.17;;;;;;;-1.07;73.14;100714.67;1708037;82;21131;-82
2021/11/11 06:22:33;;;;;;;14.10;6.87;;;;;;;-0.97;72.95;100714.23;1710400;82;20963;-82
2021/11/11 06:25:00;;;;;;;13.25;5.58;;;;;;;-0.68;72.19;100714.55;1703158;83;20932;-77
2021/11/11 06:27:27;;;;;;;13.45;7.00;;;;;;;-0.16;70.80;100719.34;1705224;83;20916;-82
2021/11/11 06:29:54;;;;;;;14.53;8.30;;;;;;;0.42;69.37;100725.87;1695147;82;21011;-79
2021/11/11 06:32:21;;;;;;;21.42;8.60;;;;;;;1.00;66.73;100721.45;1711536;83;21131;-83
2021/11/11 06:34:47;;;;;;;18.00;7.70;;;;;;;1.40;65.33;100719.63;1703991;82;20919;-79
2021/11/11 06:37:16;;;;;;;17.23;7.60;;;;;;;1.77;63.81;100721.19;1706620;82;21133;-84
2021/11/11 06:39:43;;;;;;;13.48;6.78;;;;;;;2.05;61.56;100715.17;1718294;83;21483;-82
2021/11/11 06:42:11;;;;;;;18.00;9.08;;;;;;;2.16;61.53;100714.38;1726084;82;21344;-80
2021/11/11 06:44:42;;;;;;;19.57;8.08;;;;;;;2.38;60.41;100711.09;1720355;83;21443;-74
2021/11/11 06:47:06;;;;;;;17.60;8.10;;;;;;;2.49;58.94;100708.39;1717932;82;20972;-81
2021/11/11 06:49:35;;;;;;;17.25;7.72;;;;;;;2.41;58.95;100706.56;1716928;82;20927;-74
2021/11/11 06:52:04;;;;;;;10.85;6.70;;;;;;;2.55;58.36;100707.98;1692179;82;20915;-74
2021/11/11 06:54:31;;;;;;;15.40;7.08;;;;;;;2.55;58.36;100707.98;1718776;83;21022;-70
2021/11/11 06:56:58;;;;;;;12.85;6.78;;;;;;;2.71;58.65;100695.63;1718042;83;21745;-72
2021/11/11 06:59:26;;;;;;;13.32;6.40;;;;;;;2.86;57.63;100695.44;1691802;83;20920;-70
2021/11/11 07:01:53;;;;;;;19.73;8.73;;;;;;;3.00;57.32;100697.34;1694904;84;21430;-73
2021/11/11 07:04:25;;;;;;;16.05;8.73;;;;;;;3.28;57.04;100685.73;1724812;81;20852;-70
2021/11/11 07:06:51;;;;;;;15.45;8.15;;;;;;;3.28;57.04;100685.73;1761611;80;20987;-75
2021/11/11 07:09:17;;;;;;;18.12;8.40;;;;;;;3.45;56.23;100678.48;1746998;81;21132;-75
2021/11/11 07:11:45;;;;;;;13.65;7.97;;;;;;;3.70;56.23;100676.77;1747228;80;20856;-76
2021/11/11 07:14:12;;;;;;;16.15;8.18;;;;;;;3.89;55.35;100670.06;1741958;80;20891;-77
2021/11/11 07:16:41;;;;;;;24.55;10.00;;;;;;;4.18;54.43;100681.69;1757223;81;20939;-78
2021/11/11 07:19:09;;;;;;;21.90;9.28;;;;;;;4.18;54.43;100681.69;1757121;81;20923;-84
2021/11/11 07:21:37;;;;;;;17.57;8.75;;;;;;;4.28;54.13;100677.78;1757046;80;20982;-81
2021/11/11 07:24:04;;;;;;;22.67;8.95;;;;;;;4.42;53.86;100681.53;1746145;81;20887;-77
2021/11/11 07:26:32;;;;;;;10.70;6.78;;;;;;;4.60;53.28;100681.28;1754143;81;20946;-81
2021/11/11 07:28:58;;;;;;;10.38;6.35;;;;;;;4.86;52.49;100682.45;1745838;81;20895;-83
2021/11/11 07:31:26;;;;;;;15.48;6.97;;;;;;;4.93;52.09;100680.38;1754333;81;20907;-78
2021/11/11 07:33:53;;;;;;;14.18;7.05;;;;;;;5.03;51.96;100681.88;1757177;81;21873;-81
2021/11/11 07:36:19;;;;;;;22.25;7.03;;;;;;;5.17;51.38;100688.61;1714822;81;20896;-79
2021/11/11 07:38:46;;;;;;;16.70;6.65;;;;;;;5.24;51.44;100686.48;1724340;83;21415;-81
2021/11/11 07:41:12;;;;;;;18.80;6.95;;;;;;;5.33;51.30;100690.13;1708263;82;21459;-78
2021/11/11 07:43:39;;;;;;;13.13;6.60;;;;;;;5.46;50.88;100697.39;1721017;83;20908;-77
2021/11/11 07:46:06;;;;;;;13.75;6.25;;;;;;;5.68;50.20;100708.27;1717594;82;21816;-75
2021/11/11 07:48:34;;;;;;;14.30;6.60;;;;;;;5.91;49.39;100713.44;1714008;83;21010;-76
2021/11/11 07:51:04;;;;;;;20.23;6.85;;;;;;;5.91;49.26;100703.08;1710811;83;20931;-76
2021/11/11 07:53:32;;;;;;;13.65;6.05;;;;;;;5.91;49.69;100698.45;1719453;82;20967;-77
2021/11/11 07:55:58;;;;;;;16.67;6.40;;;;;;;6.17;49.69;100690.52;1725906;82;21461;-72
2021/11/11 07:58:25;;;;;;;19.98;6.47;;;;;;;6.57;48.47;100694.94;1689593;84;21195;-74
2021/11/11 08:00:53;;;;;;;14.73;6.40;;;;;;;6.73;47.14;100690.95;1723449;82;20935;-80
2021/11/11 08:03:20;;;;;;;15.20;6.45;;;;;;;6.69;47.69;100676.19;1725730;82;20915;-83
2021/11/11 08:05:47;;;;;;;18.95;8.05;;;;;;;6.82;46.98;100660.17;1720665;81;20937;-74
2021/11/11 08:08:13;;;;;;;16.75;8.33;;;;;;;6.84;46.81;100667.56;1720852;81;20966;-78
2021/11/11 08:10:39;;;;;;;19.37;6.50;;;;;;;6.98;46.58;100658.88;1725389;81;21212;-81
2021/11/11 08:13:06;;;;;;;17.35;6.12;;;;;;;7.17;45.52;100648.59;1715675;81;20966;-80
2021/11/11 08:15:35;;;;;;;15.13;6.12;;;;;;;7.24;44.90;100646.45;1705838;81;21051;-81
2021/11/11 08:18:04;;;;;;;17.35;5.33;;;;;;;7.42;44.72;100648.42;1721133;81;21461;-70
2021/11/11 08:20:30;;;;;;;14.15;5.75;;;;;;;7.50;43.88;100650.09;1728312;82;21585;-73
2021/11/11 08:22:56;;;;;;;14.13;4.72;;;;;;;7.45;43.65;100650.63;1721942;82;21091;-72
2021/11/11 08:25:23;;;;;;;17.40;6.17;;;;;;;7.50;43.19;100650.64;1730199;82;20924;-75
2021/11/11 08:27:50;;;;;;;12.40;6.00;;;;;;;7.67;42.93;100644.37;1722732;83;20919;-74
2021/11/11 08:30:18;;;;;;;17.40;6.03;;;;;;;7.84;42.32;100640.86;1722879;83;20931;-79
2021/11/11 08:32:45;;;;;;;19.87;5.60;;;;;;;8.01;41.75;100649.36;1724884;82;20915;-74
2021/11/11 08:35:12;;;;;;;9.13;5.33;;;;;;;8.07;41.53;100645.54;1690144;84;21166;-74
2021/11/11 08:37:43;;;;;;;11.18;5.55;;;;;;;8.15;41.49;100649.07;1702542;83;20892;-71
2021/11/11 08:40:11;;;;;;;13.80;5.67;;;;;;;8.21;40.67;100641.14;1690890;84;20959;-72
2021/11/11 08:42:38;;;;;;;17.67;7.12;;;;;;;8.20;40.21;100658.65;1695881;83;21563;-72
2021/11/11 08:45:06;;;;;;;14.18;6.40;;;;;;;8.13;40.97;100647.16;1715330;82;21457;-76
2021/11/11 08:47:33;;;;;;;24.00;7.60;;;;;;;8.30;40.06;100634.03;1667685;84;21113;-72
2021/11/11 08:49:59;;;;;;;21.68;6.78;;;;;;;8.42;39.43;100636.52;1699181;84;20962;-71
2021/11/11 08:52:27;;;;;;;16.73;5.83;;;;;;;8.48;39.15;100619.00;1699427;84;20946;-76
2021/11/11 08:54:56;;;;;;;12.50;6.17;;;;;;;8.64;38.74;100621.98;1698974;82;20914;-75
2021/11/11 08:57:22;;;;;;;10.68;5.08;;;;;;;8.77;38.82;100620.02;1692389;83;20991;-72
2021/11/11 08:59:55;;;;;;;9.25;4.80;;;;;;;8.92;38.55;100617.23;1727440;81;21845;-71
2021/11/11 09:02:23;;;;;;;19.57;5.30;;;;;;;9.07;38.67;100607.33;1750039;80;20870;-81
2021/11/11 09:04:49;;;;;;;14.35;4.58;;;;;;;9.13;37.62;100601.55;1746528;80;20823;-83
2021/11/11 09:07:17;;;;;;;17.85;5.42;;;;;;;9.11;38.08;100590.61;1745353;79;20898;-82
2021/11/11 09:09:45;;;;;;;12.55;5.30;;;;;;;9.17;38.07;100593.59;1739911;81;21038;-80
2021/11/11 09:12:11;;;;;;;11.97;4.70;;;;;;;9.27;37.62;100588.03;1754229;81;21076;-82
2021/11/11 09:14:39;;;;;;;11.90;5.55;;;;;;;9.43;37.64;100584.66;1748838;80;20998;-85
2021/11/11 09:17:05;;;;;;;10.45;4.87;;;;;;;9.63;37.06;100584.55;1756605;79;20910;-76
2021/11/11 09:19:32;;;;;;;14.83;5.28;;;;;;;9.70;35.92;100586.42;1749132;79;21477;-78
2021/11/11 09:21:59;;;;;;;15.28;5.42;;;;;;;9.72;36.28;100587.51;1731876;80;20976;-78
2021/11/11 09:24:26;;;;;;;11.10;5.30;;;;;;;9.69;36.31;100575.19;1696661;82;21132;-84
2021/11/11 09:26:52;;;;;;;8.13;4.80;;;;;;;9.67;35.98;100581.50;1725825;81;21412;-75
2021/11/11 09:29:20;;;;;;;10.98;4.70;;;;;;;9.59;36.43;100576.63;1696836;83;20908;-85
2021/11/11 09:31:46;;;;;;;10.68;4.70;;;;;;;9.72;36.23;100584.77;1710557;82;21030;-76
2021/11/11 09:34:13;;;;;;;11.73;5.20;;;;;;;9.85;36.29;100575.86;1690336;84;20951;-80
2021/11/11 09:36:39;;;;;;;12.35;5.10;;;;;;;9.78;35.63;100566.63;1712640;82;21107;-75
2021/11/11 09:39:06;;;;;;;9.33;4.83;;;;;;;9.71;36.04;100548.30;1720386;81;21443;-81
2021/11/11 09:41:33;;;;;;;10.25;4.85;;;;;;;9.78;36.42;100554.28;1730332;83;20939;-75
2021/11/11 09:44:00;;;;;;;13.62;4.85;;;;;;;10.07;36.08;100553.47;1729240;82;21924;-74
2021/11/11 09:46:29;;;;;;;15.30;5.67;;;;;;;10.22;35.60;100546.51;1712520;83;21483;-75
2021/11/11 09:48:57;;;;;;;12.18;5.78;;;;;;;10.26;35.54;100543.45;1723590;82;21130;-79
2021/11/11 09:51:24;;;;;;;11.80;5.10;;;;;;;10.42;35.16;100529.81;1721279;81;20872;-71
2021/11/11 09:59:04;;;;;;;7.75;4.42;;;;;;;10.50;34.59;100504.47;1725044;81;20900;-73
2021/11/11 10:01:31;;;;;;;10.95;4.75;;;;;;;10.55;34.11;100501.66;1724220;82;21122;-80
2021/11/11 10:03:57;;;;;;;10.08;5.05;;;;;;;10.46;33.87;100484.75;1723152;82;20999;-80
2021/11/11 10:06:26;;;;;;;9.15;4.50;;;;;;;10.29;34.78;100498.97;1722687;82;21526;-78
2021/11/11 10:08:55;;;;;;;9.93;5.12;;;;;;;10.35;34.33;100478.59;1721519;82;20912;-75
2021/11/11 10:11:33;;;;;;;10.70;4.47;;;;;;;10.38;34.48;100462.91;1722632;82;20880;-78
2021/11/11 10:14:10;;;;;;;8.80;4.20;;;;;;;10.48;34.39;100454.53;1724425;81;21117;-78
2021/11/11 10:17:02;;;;;;;7.42;4.33;;;;;;;10.66;34.71;100446.07;1696843;82;21502;-81
2021/11/11 10:19:34;;;;;;;11.43;4.72;;;;;;;10.72;33.79;100449.02;1699483;83;20924;-82
2021/11/11 10:22:12;;;;;;;9.68;3.90;;;;;;;10.76;34.15;100446.50;1729168;80;38017;-74
2021/11/11 10:24:52;;;;;;;11.73;4.80;;;;;;;10.90;33.83;100441.91;1718701;81;21434;-74
2021/11/11 10:27:29;;;;;;;7.80;4.30;;;;;;;10.96;34.12;100431.11;1722162;81;21152;-77
2021/11/11 10:30:21;;;;;;;12.13;4.25;;;;;;;11.00;34.15;100417.56;1729024;81;21506;-81
2021/11/11 10:32:55;;;;;;;20.55;5.30;;;;;;;11.12;33.55;100424.25;1693009;81;20997;-77
2021/11/11 10:35:26;;;;;;;10.25;4.37;;;;;;;11.21;34.00;100423.02;1730177;81;20964;-72
2021/11/11 10:38:00;;;;;;;11.15;4.55;;;;;;;11.43;34.02;100414.16;1720727;81;21011;-73
2021/11/11 10:40:34;;;;;;;17.80;6.12;;;;;;;11.77;33.05;100398.16;1722900;81;21107;-74
2021/11/11 10:43:13;;;;;;;18.62;5.03;;;;;;;12.05;32.92;100395.45;1709360;83;21493;-73
2021/11/11 10:45:47;;;;;;;8.80;4.22;;;;;;;12.30;32.47;100394.09;1732160;81;20918;-75
2021/11/11 10:48:18;;;;;;;10.40;4.10;;;;;;;12.44;31.86;100381.95;1728676;81;20890;-83
2021/11/11 10:50:47;;;;;;;9.88;4.50;;;;;;;12.59;31.51;100393.77;1723652;81;20903;-77
2021/11/11 10:53:24;;;;;;;5.58;3.60;;;;;;;12.63;31.91;100393.41;1714724;81;20931;-75
2021/11/11 10:55:53;;;;;;;7.10;4.00;;;;;;;12.88;30.46;100393.63;1712067;81;21526;-76
2021/11/11 10:58:22;;;;;;;7.47;4.03;;;;;;;13.12;30.69;100389.78;1729188;81;21467;-73
2021/11/11 11:01:03;;;;;;;9.45;4.05;;;;;;;13.28;29.29;100391.64;1703409;83;20919;-72
2021/11/11 11:03:35;;;;;;;;;;;;;;;13.23;29.74;100392.58;1723291;81;20934;-73
2021/11/11 11:06:12;;;;;;;7.95;4.78;;;;;;;12.99;30.08;100392.02;1711472;82;21132;-73
2021/11/11 11:08:44;;;;;;;11.03;4.17;;;;;;;12.41;31.28;100379.00;1722867;82;20915;-84
2021/11/11 11:11:17;;;;;;;9.45;3.98;;;;;;;11.67;31.37;100370.80;1687820;83;20908;-74
2021/11/11 11:13:49;;;;;;;;;;;;;;;11.05;32.25;100365.29;1731120;81;21422;-76
2021/11/11 11:16:26;;;;;;;6.40;4.22;;;;;;;10.57;32.75;100385.50;1717418;81;20084;-76
2021/11/11 11:19:00;;;;;;;5.70;3.70;;;;;;;10.14;33.56;100401.69;1722637;81;21193;-74
2021/11/11 11:21:40;;;;;;;7.92;4.67;;;;;;;9.80;34.41;100394.39;1684862;83;21483;-77
2021/11/11 11:24:11;;;;;;;11.20;4.85;;;;;;;9.57;34.86;100384.20;1708060;83;21549;-77
2021/11/11 11:26:49;;;;;;;10.82;4.47;;;;;;;9.40;35.40;100379.14;1738422;82;20930;-78
2021/11/11 11:32:06;;;;;;;13.03;4.10;;;;;;;10.03;35.07;100358.46;1696747;84;21099;-79
2021/11/11 11:34:29;;;;;;;7.30;4.10;;;;;;;10.54;34.13;100353.70;1727315;82;21469;-84
2021/11/11 11:37:11;;;;;;;7.00;4.30;;;;;;;10.55;33.83;100337.49;1726145;81;20927;-79
2021/11/11 11:39:45;;;;;;;10.32;4.87;;;;;;;10.44;34.26;100337.38;1663019;85;21434;-81
2021/11/11 11:42:22;;;;;;;8.50;5.00;;;;;;;10.22;34.70;100343.45;1672395;84;20914;-85
2021/11/11 11:44:59;;;;;;;8.18;4.28;;;;;;;9.98;35.30;100346.73;1698209;84;21541;-74
2021/11/11 11:47:45;;;;;;;11.03;5.60;;;;;;;9.73;35.70;100336.34;1690994;84;20900;-76
2021/11/11 11:50:21;;;;;;;15.20;5.05;;;;;;;9.52;36.34;100332.98;1691186;84;20900;-74